Jamie Marie — WDE7178 — position and weather

sailwx.info

Track history (hours):
 
Tides and Currents Weather Stations Pressure Air Temp Water Temp Dewpoint Dewpoint Depression Visibility Wind Speed Wind Dir Waves Ship Positions

Jamie Marie

Owner: Jamie Marie, Inc., Aberdeen, WA. More information available from US FCC via Universal Licensing System and Coast Guard Vessel Documentation Center.

Last reported at 2017-Feb-24 16:34 UTC. Time now 2017-Feb-24 17:25 UTC.
Position N 46°54' W 124°06'.

Length 30 m.

Type: Fishing. MMSI: 366425240.

Date/timePositionNaut miles runAvg speedWind from/ knotsBaromVisibWave heightAir tempDewpointWater temp
2017-Feb-24 16:34N 46°54' W 124°06'0 0.0
2017-Feb-24 15:33N 46°54' W 124°06'0 0.0
2017-Feb-24 14:33N 46°54' W 124°06'0 0.0
2017-Feb-24 13:34N 46°54' W 124°06'0 0.0
2017-Feb-24 12:33N 46°54' W 124°06'0 0.0
2017-Feb-24 11:33N 46°54' W 124°06'0 0.0
2017-Feb-24 10:33N 46°54' W 124°06'0 0.0
2017-Feb-24 09:33N 46°54' W 124°06'0 0.0
2017-Feb-24 08:33N 46°54' W 124°06'0 0.0
2017-Feb-24 07:33N 46°54' W 124°06'0 0.0
2017-Feb-24 06:34N 46°54' W 124°06'0 0.0
2017-Feb-24 05:33N 46°54' W 124°06'0 0.0
2017-Feb-24 04:34N 46°54' W 124°06'0 0.0
2017-Feb-24 03:30N 46°54' W 124°06'0 0.0
2017-Feb-24 02:33N 46°54' W 124°06'0 0.0
2017-Feb-24 01:33N 46°54' W 124°06'0 0.0
2017-Feb-24 00:33N 46°54' W 124°06'0 0.0
2017-Feb-23 23:33N 46°54' W 124°06'0 0.0
2017-Feb-23 22:33N 46°54' W 124°06'0 0.0
2017-Feb-23 21:34N 46°54' W 124°06'0 0.0
2017-Feb-23 20:34N 46°54' W 124°06'0 0.0
2017-Feb-23 19:33N 46°54' W 124°06'0 0.0
2017-Feb-23 18:34N 46°54' W 124°06'0 0.0
2017-Feb-23 17:33N 46°54' W 124°06'  
2017-Feb-21 01:33N 46°54' W 124°06'0 0.0
2017-Feb-21 00:33N 46°54' W 124°06'4 4.4
2017-Feb-20 23:33N 46°53' W 124°13'9 9.2
2017-Feb-20 22:33N 46°44' W 124°16'9 9.3
2017-Feb-20 21:33N 46°35' W 124°19'9 9.4
2017-Feb-20 20:34N 46°26' W 124°21'8 7.6
2017-Feb-20 19:34N 46°19' W 124°23'6 5.8
2017-Feb-20 18:33N 46°13' W 124°22'8 8.2
2017-Feb-20 17:34N 46°05' W 124°21'1 0.5
2017-Feb-20 16:34N 46°04' W 124°21'3 3.0
2017-Feb-20 15:34N 46°07' W 124°23'1 1.4
2017-Feb-20 14:33N 46°08' W 124°23'2 1.7
2017-Feb-20 13:34N 46°07' W 124°21'4 4.2
2017-Feb-20 12:33N 46°12' W 124°20'3 2.6
2017-Feb-20 11:33N 46°14' W 124°22'4 3.7
2017-Feb-20 10:33N 46°16' W 124°18'2 2.1
2017-Feb-20 09:34N 46°18' W 124°19'1 0.8
2017-Feb-20 08:34N 46°18' W 124°21'2 1.8
2017-Feb-20 07:33N 46°17' W 124°23'4 4.1
2017-Feb-20 06:33N 46°19' W 124°28'2 2.1
2017-Feb-20 05:33N 46°21' W 124°28'2 2.0
2017-Feb-20 04:33N 46°19' W 124°26'2 1.6
2017-Feb-20 03:33N 46°21' W 124°28'2 2.3
2017-Feb-20 02:34N 46°23' W 124°26'2 2.0
2017-Feb-20 01:33N 46°21' W 124°24'4 4.4
2017-Feb-20 00:34N 46°25' W 124°22'2 2.1
2017-Feb-19 23:34N 46°27' W 124°23'1 1.1
2017-Feb-19 22:33N 46°28' W 124°24'0 0.4
2017-Feb-19 21:33N 46°28' W 124°23'7 6.8
2017-Feb-19 20:33N 46°22' W 124°21'6 6.2
2017-Feb-19 19:33N 46°16' W 124°17'1 1.2
2017-Feb-19 18:33N 46°17' W 124°16'1 1.2
2017-Feb-19 17:33N 46°16' W 124°15'1 1.4
2017-Feb-19 16:33N 46°17' W 124°15'2 1.9
2017-Feb-19 15:33N 46°15' W 124°15'2 2.3
2017-Feb-19 14:33N 46°18' W 124°15'3 2.7
2017-Feb-19 13:33N 46°15' W 124°15'1 1.5
2017-Feb-19 12:34N 46°17' W 124°15'1 1.5
2017-Feb-19 11:33N 46°18' W 124°15'3 3.0
2017-Feb-19 10:33N 46°15' W 124°15'2 1.5
2017-Feb-19 09:33N 46°17' W 124°15'2 1.6
2017-Feb-19 08:34N 46°18' W 124°16'4 4.2
2017-Feb-19 07:33N 46°14' W 124°18'4 3.8
2017-Feb-19 06:33N 46°13' W 124°23'6 6.2
2017-Feb-19 05:33N 46°07' W 124°23'2 2.2
2017-Feb-19 04:33N 46°09' W 124°22'3 3.1
2017-Feb-19 03:33N 46°06' W 124°21'6 6.1
2017-Feb-19 02:33N 45°60' W 124°18'0 0.4
2017-Feb-19 01:33N 45°59' W 124°18'2 2.4
2017-Feb-19 00:33N 45°57' W 124°17'1 1.0
2017-Feb-18 23:34N 45°58' W 124°17'2 2.4
2017-Feb-18 22:34N 45°56' W 124°16'1 0.6
2017-Feb-18 21:33N 45°55' W 124°17'2 2.0
2017-Feb-18 20:34N 45°57' W 124°19'2 1.9
2017-Feb-18 19:33N 45°59' W 124°19'1 0.5
2017-Feb-18 18:33N 45°58' W 124°19'4 4.2
2017-Feb-18 17:33N 45°54' W 124°19'8 8.0
2017-Feb-18 16:33N 45°46' W 124°23'1 1.3
2017-Feb-18 15:33N 45°47' W 124°25'2 2.3
2017-Feb-18 14:34N 45°49' W 124°27'2 1.8
2017-Feb-18 13:34N 45°50' W 124°27'1 1.3
2017-Feb-18 12:33N 45°52' W 124°27'7 7.1
2017-Feb-18 11:33N 45°58' W 124°23'5 5.0
2017-Feb-18 10:33N 46°03' W 124°21'2 1.9
2017-Feb-18 09:33N 46°05' W 124°21'7 7.2
2017-Feb-18 08:33N 46°12' W 124°23'6 6.5
2017-Feb-18 07:33N 46°18' W 124°26'6 5.7
2017-Feb-18 06:34N 46°24' W 124°27'2 2.0
2017-Feb-18 05:33N 46°22' W 124°27'2 1.5
2017-Feb-18 04:34N 46°20' W 124°26'2 2.4
2017-Feb-18 03:34N 46°19' W 124°23'3 3.0
2017-Feb-18 02:33N 46°21' W 124°25'4 3.5
2017-Feb-18 01:34N 46°24' W 124°29'0 0.1
2017-Feb-18 00:33N 46°24' W 124°29'1 1.0
2017-Feb-17 23:34N 46°25' W 124°27'3 2.5
2017-Feb-17 22:34N 46°22' W 124°27'1 1.0
2017-Feb-17 21:34N 46°21' W 124°28'2 1.7
2017-Feb-17 20:34N 46°23' W 124°28'2 2.2
2017-Feb-17 19:34N 46°25' W 124°29'0 0.1
2017-Feb-17 18:34N 46°25' W 124°28'6 6.3
2017-Feb-17 17:34N 46°31' W 124°33'6 6.1
2017-Feb-17 16:33N 46°36' W 124°37'6 6.1
2017-Feb-17 15:33N 46°41' W 124°41'6 6.2
2017-Feb-17 14:33N 46°47' W 124°46'4 4.4
2017-Feb-17 13:33N 46°51' W 124°49'3 2.6
2017-Feb-17 12:34N 46°53' W 124°47'3 3.2
2017-Feb-17 11:33N 46°53' W 124°42'7 7.2
2017-Feb-17 10:33N 46°54' W 124°32'7 6.9
2017-Feb-17 09:33N 46°54' W 124°22'7 7.2
2017-Feb-17 08:33N 46°55' W 124°11'3 3.4
2017-Feb-17 07:33N 46°54' W 124°06'0 0.0
2017-Feb-17 06:33N 46°54' W 124°06'0 0.0
2017-Feb-17 05:33N 46°54' W 124°06'0 0.0
2017-Feb-17 04:33N 46°54' W 124°06'0 0.0
2017-Feb-17 03:30N 46°54' W 124°06'0 0.0
2017-Feb-17 02:33N 46°54' W 124°06'0 0.0
2017-Feb-17 01:31N 46°54' W 124°06'0 0.0
2017-Feb-17 00:33N 46°54' W 124°06'0 0.0
2017-Feb-16 23:33N 46°54' W 124°06'0 0.0
2017-Feb-16 22:33N 46°54' W 124°06'0 0.0
2017-Feb-16 21:33N 46°54' W 124°06'0 0.0
2017-Feb-16 20:33N 46°54' W 124°06'0 0.0
2017-Feb-16 19:33N 46°54' W 124°06'0 0.0
2017-Feb-16 18:33N 46°54' W 124°06'0 0.0
2017-Feb-16 17:33N 46°54' W 124°06'0 0.0
2017-Feb-16 16:33N 46°54' W 124°06'0 0.0
2017-Feb-16 15:33N 46°54' W 124°06'0 0.0
2017-Feb-16 14:33N 46°54' W 124°06'0 0.0
2017-Feb-16 13:33N 46°54' W 124°06'0 0.0
2017-Feb-16 12:33N 46°54' W 124°06'0 0.0
2017-Feb-16 11:33N 46°54' W 124°06'0 0.0
2017-Feb-16 10:33N 46°54' W 124°06'0 0.0
2017-Feb-16 09:33N 46°54' W 124°06'0 0.0
2017-Feb-16 08:33N 46°54' W 124°06'0 0.0
2017-Feb-16 07:32N 46°54' W 124°06'0 0.0
2017-Feb-16 06:33N 46°54' W 124°06'0 0.0
2017-Feb-16 05:33N 46°54' W 124°06'0 0.0
2017-Feb-16 04:33N 46°54' W 124°06'0 0.0
2017-Feb-16 03:33N 46°54' W 124°06'0 0.0
2017-Feb-16 02:33N 46°54' W 124°06'0 0.0
2017-Feb-16 01:33N 46°54' W 124°06'0 0.0
2017-Feb-16 00:33N 46°54' W 124°06'0 0.0
2017-Feb-15 23:33N 46°54' W 124°06'0 0.0
2017-Feb-15 22:33N 46°54' W 124°06'0 0.0
2017-Feb-15 21:33N 46°54' W 124°06'0 0.0
2017-Feb-15 20:33N 46°54' W 124°06'0 0.0
2017-Feb-15 19:33N 46°54' W 124°06'0 0.0
2017-Feb-15 18:33N 46°54' W 124°06'0 0.0
2017-Feb-15 17:33N 46°54' W 124°06'0 0.0
2017-Feb-15 16:33N 46°54' W 124°06'0 0.0
2017-Feb-15 15:33N 46°54' W 124°06'0 0.0
2017-Feb-15 14:33N 46°54' W 124°06'0 0.0
2017-Feb-15 13:33N 46°54' W 124°06'0 0.0
2017-Feb-15 12:33N 46°54' W 124°06'0 0.0
2017-Feb-15 11:33N 46°54' W 124°06'0 0.0
2017-Feb-15 10:33N 46°54' W 124°06'0 0.0
2017-Feb-15 09:33N 46°54' W 124°06'0 0.0
2017-Feb-15 08:33N 46°54' W 124°06'0 0.0
2017-Feb-15 07:33N 46°54' W 124°06'0 0.0
2017-Feb-15 06:32N 46°54' W 124°06'0 0.0
2017-Feb-15 05:33N 46°54' W 124°06'3 3.3
2017-Feb-15 04:33N 46°55' W 124°11'7 7.5
2017-Feb-15 03:33N 46°48' W 124°16'9 8.7
2017-Feb-15 02:33N 46°39' W 124°17'9 9.3
2017-Feb-15 01:33N 46°30' W 124°18'10 9.5
2017-Feb-15 00:33N 46°21' W 124°20'6 6.2
2017-Feb-14 23:33N 46°14' W 124°18'8 8.0
2017-Feb-14 22:33N 46°06' W 124°18'9 8.5
2017-Feb-14 21:33N 45°58' W 124°18'1 1.0
2017-Feb-14 20:33N 45°57' W 124°19'1 0.8
2017-Feb-14 19:33N 45°56' W 124°19'8 8.0
2017-Feb-14 18:33N 45°49' W 124°22'3 2.8
2017-Feb-14 17:34N 45°47' W 124°25'  
Track history (hours):
 
Tides and Currents Weather Stations Pressure Air Temp Water Temp Dewpoint Dewpoint Depression Visibility Wind Speed Wind Dir Waves Ship Positions

Jamie Marie

Owner: Jamie Marie, Inc., Aberdeen, WA. More information available from US FCC via Universal Licensing System and Coast Guard Vessel Documentation Center.

Last reported at 2017-Feb-24 16:34 UTC. Time now 2017-Feb-24 17:25 UTC.
Position N 46°54' W 124°06'.

Length 30 m.

Type: Fishing. MMSI: 366425240.

Date/timePositionNaut miles runAvg speedWind from/ knotsBaromVisibWave heightAir tempDewpointWater temp
2017-Feb-24 16:34N 46°54' W 124°06'0 0.0
2017-Feb-24 15:33N 46°54' W 124°06'0 0.0
2017-Feb-24 14:33N 46°54' W 124°06'0 0.0
2017-Feb-24 13:34N 46°54' W 124°06'0 0.0
2017-Feb-24 12:33N 46°54' W 124°06'0 0.0
2017-Feb-24 11:33N 46°54' W 124°06'0 0.0
2017-Feb-24 10:33N 46°54' W 124°06'0 0.0
2017-Feb-24 09:33N 46°54' W 124°06'0 0.0
2017-Feb-24 08:33N 46°54' W 124°06'0 0.0
2017-Feb-24 07:33N 46°54' W 124°06'0 0.0
2017-Feb-24 06:34N 46°54' W 124°06'0 0.0
2017-Feb-24 05:33N 46°54' W 124°06'0 0.0
2017-Feb-24 04:34N 46°54' W 124°06'0 0.0
2017-Feb-24 03:30N 46°54' W 124°06'0 0.0
2017-Feb-24 02:33N 46°54' W 124°06'0 0.0
2017-Feb-24 01:33N 46°54' W 124°06'0 0.0
2017-Feb-24 00:33N 46°54' W 124°06'0 0.0
2017-Feb-23 23:33N 46°54' W 124°06'0 0.0
2017-Feb-23 22:33N 46°54' W 124°06'0 0.0
2017-Feb-23 21:34N 46°54' W 124°06'0 0.0
2017-Feb-23 20:34N 46°54' W 124°06'0 0.0
2017-Feb-23 19:33N 46°54' W 124°06'0 0.0
2017-Feb-23 18:34N 46°54' W 124°06'0 0.0
2017-Feb-23 17:33N 46°54' W 124°06'  
2017-Feb-21 01:33N 46°54' W 124°06'0 0.0
2017-Feb-21 00:33N 46°54' W 124°06'4 4.4
2017-Feb-20 23:33N 46°53' W 124°13'9 9.2
2017-Feb-20 22:33N 46°44' W 124°16'9 9.3
2017-Feb-20 21:33N 46°35' W 124°19'9 9.4
2017-Feb-20 20:34N 46°26' W 124°21'8 7.6
2017-Feb-20 19:34N 46°19' W 124°23'6 5.8
2017-Feb-20 18:33N 46°13' W 124°22'8 8.2
2017-Feb-20 17:34N 46°05' W 124°21'1 0.5
2017-Feb-20 16:34N 46°04' W 124°21'3 3.0
2017-Feb-20 15:34N 46°07' W 124°23'1 1.4
2017-Feb-20 14:33N 46°08' W 124°23'2 1.7
2017-Feb-20 13:34N 46°07' W 124°21'4 4.2
2017-Feb-20 12:33N 46°12' W 124°20'3 2.6
2017-Feb-20 11:33N 46°14' W 124°22'4 3.7
2017-Feb-20 10:33N 46°16' W 124°18'2 2.1
2017-Feb-20 09:34N 46°18' W 124°19'1 0.8
2017-Feb-20 08:34N 46°18' W 124°21'2 1.8
2017-Feb-20 07:33N 46°17' W 124°23'4 4.1
2017-Feb-20 06:33N 46°19' W 124°28'2 2.1
2017-Feb-20 05:33N 46°21' W 124°28'2 2.0
2017-Feb-20 04:33N 46°19' W 124°26'2 1.6
2017-Feb-20 03:33N 46°21' W 124°28'2 2.3
2017-Feb-20 02:34N 46°23' W 124°26'2 2.0
2017-Feb-20 01:33N 46°21' W 124°24'4 4.4
2017-Feb-20 00:34N 46°25' W 124°22'2 2.1
2017-Feb-19 23:34N 46°27' W 124°23'1 1.1
2017-Feb-19 22:33N 46°28' W 124°24'0 0.4
2017-Feb-19 21:33N 46°28' W 124°23'7 6.8
2017-Feb-19 20:33N 46°22' W 124°21'6 6.2
2017-Feb-19 19:33N 46°16' W 124°17'1 1.2
2017-Feb-19 18:33N 46°17' W 124°16'1 1.2
2017-Feb-19 17:33N 46°16' W 124°15'1 1.4
2017-Feb-19 16:33N 46°17' W 124°15'2 1.9
2017-Feb-19 15:33N 46°15' W 124°15'2 2.3
2017-Feb-19 14:33N 46°18' W 124°15'3 2.7
2017-Feb-19 13:33N 46°15' W 124°15'1 1.5
2017-Feb-19 12:34N 46°17' W 124°15'1 1.5
2017-Feb-19 11:33N 46°18' W 124°15'3 3.0
2017-Feb-19 10:33N 46°15' W 124°15'2 1.5
2017-Feb-19 09:33N 46°17' W 124°15'2 1.6
2017-Feb-19 08:34N 46°18' W 124°16'4 4.2
2017-Feb-19 07:33N 46°14' W 124°18'4 3.8
2017-Feb-19 06:33N 46°13' W 124°23'6 6.2
2017-Feb-19 05:33N 46°07' W 124°23'2 2.2
2017-Feb-19 04:33N 46°09' W 124°22'3 3.1
2017-Feb-19 03:33N 46°06' W 124°21'6 6.1
2017-Feb-19 02:33N 45°60' W 124°18'0 0.4
2017-Feb-19 01:33N 45°59' W 124°18'2 2.4
2017-Feb-19 00:33N 45°57' W 124°17'1 1.0
2017-Feb-18 23:34N 45°58' W 124°17'2 2.4
2017-Feb-18 22:34N 45°56' W 124°16'1 0.6
2017-Feb-18 21:33N 45°55' W 124°17'2 2.0
2017-Feb-18 20:34N 45°57' W 124°19'2 1.9
2017-Feb-18 19:33N 45°59' W 124°19'1 0.5
2017-Feb-18 18:33N 45°58' W 124°19'4 4.2
2017-Feb-18 17:33N 45°54' W 124°19'8 8.0
2017-Feb-18 16:33N 45°46' W 124°23'1 1.3
2017-Feb-18 15:33N 45°47' W 124°25'2 2.3
2017-Feb-18 14:34N 45°49' W 124°27'2 1.8
2017-Feb-18 13:34N 45°50' W 124°27'1 1.3
2017-Feb-18 12:33N 45°52' W 124°27'7 7.1
2017-Feb-18 11:33N 45°58' W 124°23'5 5.0
2017-Feb-18 10:33N 46°03' W 124°21'2 1.9
2017-Feb-18 09:33N 46°05' W 124°21'7 7.2
2017-Feb-18 08:33N 46°12' W 124°23'6 6.5
2017-Feb-18 07:33N 46°18' W 124°26'6 5.7
2017-Feb-18 06:34N 46°24' W 124°27'2 2.0
2017-Feb-18 05:33N 46°22' W 124°27'2 1.5
2017-Feb-18 04:34N 46°20' W 124°26'2 2.4
2017-Feb-18 03:34N 46°19' W 124°23'3 3.0
2017-Feb-18 02:33N 46°21' W 124°25'4 3.5
2017-Feb-18 01:34N 46°24' W 124°29'0 0.1
2017-Feb-18 00:33N 46°24' W 124°29'1 1.0
2017-Feb-17 23:34N 46°25' W 124°27'3 2.5
2017-Feb-17 22:34N 46°22' W 124°27'1 1.0
2017-Feb-17 21:34N 46°21' W 124°28'2 1.7
2017-Feb-17 20:34N 46°23' W 124°28'2 2.2
2017-Feb-17 19:34N 46°25' W 124°29'0 0.1
2017-Feb-17 18:34N 46°25' W 124°28'6 6.3
2017-Feb-17 17:34N 46°31' W 124°33'6 6.1
2017-Feb-17 16:33N 46°36' W 124°37'6 6.1
2017-Feb-17 15:33N 46°41' W 124°41'6 6.2
2017-Feb-17 14:33N 46°47' W 124°46'4 4.4
2017-Feb-17 13:33N 46°51' W 124°49'3 2.6
2017-Feb-17 12:34N 46°53' W 124°47'3 3.2
2017-Feb-17 11:33N 46°53' W 124°42'7 7.2
2017-Feb-17 10:33N 46°54' W 124°32'7 6.9
2017-Feb-17 09:33N 46°54' W 124°22'7 7.2
2017-Feb-17 08:33N 46°55' W 124°11'3 3.4
2017-Feb-17 07:33N 46°54' W 124°06'0 0.0
2017-Feb-17 06:33N 46°54' W 124°06'0 0.0
2017-Feb-17 05:33N 46°54' W 124°06'0 0.0
2017-Feb-17 04:33N 46°54' W 124°06'0 0.0
2017-Feb-17 03:30N 46°54' W 124°06'0 0.0
2017-Feb-17 02:33N 46°54' W 124°06'0 0.0
2017-Feb-17 01:31N 46°54' W 124°06'0 0.0
2017-Feb-17 00:33N 46°54' W 124°06'0 0.0
2017-Feb-16 23:33N 46°54' W 124°06'0 0.0
2017-Feb-16 22:33N 46°54' W 124°06'0 0.0
2017-Feb-16 21:33N 46°54' W 124°06'0 0.0
2017-Feb-16 20:33N 46°54' W 124°06'0 0.0
2017-Feb-16 19:33N 46°54' W 124°06'0 0.0
2017-Feb-16 18:33N 46°54' W 124°06'0 0.0
2017-Feb-16 17:33N 46°54' W 124°06'0 0.0
2017-Feb-16 16:33N 46°54' W 124°06'0 0.0
2017-Feb-16 15:33N 46°54' W 124°06'0 0.0
2017-Feb-16 14:33N 46°54' W 124°06'0 0.0
2017-Feb-16 13:33N 46°54' W 124°06'0 0.0
2017-Feb-16 12:33N 46°54' W 124°06'0 0.0
2017-Feb-16 11:33N 46°54' W 124°06'0 0.0
2017-Feb-16 10:33N 46°54' W 124°06'0 0.0
2017-Feb-16 09:33N 46°54' W 124°06'0 0.0
2017-Feb-16 08:33N 46°54' W 124°06'0 0.0
2017-Feb-16 07:32N 46°54' W 124°06'0 0.0
2017-Feb-16 06:33N 46°54' W 124°06'0 0.0
2017-Feb-16 05:33N 46°54' W 124°06'0 0.0
2017-Feb-16 04:33N 46°54' W 124°06'0 0.0
2017-Feb-16 03:33N 46°54' W 124°06'0 0.0
2017-Feb-16 02:33N 46°54' W 124°06'0 0.0
2017-Feb-16 01:33N 46°54' W 124°06'0 0.0
2017-Feb-16 00:33N 46°54' W 124°06'0 0.0
2017-Feb-15 23:33N 46°54' W 124°06'0 0.0
2017-Feb-15 22:33N 46°54' W 124°06'0 0.0
2017-Feb-15 21:33N 46°54' W 124°06'0 0.0
2017-Feb-15 20:33N 46°54' W 124°06'0 0.0
2017-Feb-15 19:33N 46°54' W 124°06'0 0.0
2017-Feb-15 18:33N 46°54' W 124°06'0 0.0
2017-Feb-15 17:33N 46°54' W 124°06'0 0.0
2017-Feb-15 16:33N 46°54' W 124°06'0 0.0
2017-Feb-15 15:33N 46°54' W 124°06'0 0.0
2017-Feb-15 14:33N 46°54' W 124°06'0 0.0
2017-Feb-15 13:33N 46°54' W 124°06'0 0.0
2017-Feb-15 12:33N 46°54' W 124°06'0 0.0
2017-Feb-15 11:33N 46°54' W 124°06'0 0.0
2017-Feb-15 10:33N 46°54' W 124°06'0 0.0
2017-Feb-15 09:33N 46°54' W 124°06'0 0.0
2017-Feb-15 08:33N 46°54' W 124°06'0 0.0
2017-Feb-15 07:33N 46°54' W 124°06'0 0.0
2017-Feb-15 06:32N 46°54' W 124°06'0 0.0
2017-Feb-15 05:33N 46°54' W 124°06'3 3.3
2017-Feb-15 04:33N 46°55' W 124°11'7 7.5
2017-Feb-15 03:33N 46°48' W 124°16'9 8.7
2017-Feb-15 02:33N 46°39' W 124°17'9 9.3
2017-Feb-15 01:33N 46°30' W 124°18'10 9.5
2017-Feb-15 00:33N 46°21' W 124°20'6 6.2
2017-Feb-14 23:33N 46°14' W 124°18'8 8.0
2017-Feb-14 22:33N 46°06' W 124°18'9 8.5
2017-Feb-14 21:33N 45°58' W 124°18'1 1.0
2017-Feb-14 20:33N 45°57' W 124°19'1 0.8
2017-Feb-14 19:33N 45°56' W 124°19'8 8.0
2017-Feb-14 18:33N 45°49' W 124°22'3 2.8
2017-Feb-14 17:34N 45°47' W 124°25'  

Dump ship's entire track history